MMPN/UPN METAR and TAF weather

Enter ICAO airport designator
Station Type Date Time Source
MMPN METAR 2020/11/25 22:41 UTC NOAA

MMPN 252241Z 28008KT 10SM SCT040CB 26/13 A3015 RMK 8/300 HZY


Station Type Date Time Source
MMPN Decoded METAR 2020/11/25 22:41 UTC NOAA

Uruapan / Gen Rayon, Mexico (MMPN) 19-24N 102-02W
Nov 25, 2020 - 05:41 PM EST / 2020.11.25 2241 UTC
Wind: from the W (280 degrees) at 9 MPH (8 KT):0
Visibility: 10 mile(s):0
Sky conditions: partly cloudy
Weather: Cumulonimbus clouds observed
Temperature: 78 F (26 C)
Dew Point: 55 F (13 C)
Relative Humidity: 44%
Pressure (altimeter): 30.15 in. Hg (1020 hPa)
ob: MMPN 252241Z 28008KT 10SM SCT040CB 26/13 A3015 RMK 8/300 HZY
cycle: 22

Station Type Date Time Source
MMPN TAF 2020/11/25 18:29 UTC NOAA

TAF MMPN 251625Z 2518/2618 23008KT P6SM SCT030
BECMG 2602/2603 00000KT SKC
FM261700 22008KT P6SM SKC

Example: see airport list